createdAt,value
2018-03-03T00:01:12.992Z,121.47
2018-03-03T00:03:43.518Z,116.95
2018-03-03T00:06:13.716Z,114.95
2018-03-03T00:08:44.339Z,113.82
2018-03-03T00:11:14.668Z,111.15
2018-03-03T00:13:45.331Z,114.90
2018-03-03T00:16:15.731Z,118.00
2018-03-03T00:18:45.938Z,114.75
2018-03-03T00:21:16.002Z,110.72
2018-03-03T00:23:46.667Z,107.73
2018-03-03T00:26:17.867Z,109.07
2018-03-03T00:28:48.366Z,118.40
2018-03-03T00:31:19.196Z,110.83
2018-03-03T00:33:49.433Z,125.43
2018-03-03T00:36:20.123Z,117.03
2018-03-03T00:38:50.862Z,109.72
2018-03-03T00:41:21.339Z,121.78
2018-03-03T00:43:51.902Z,113.32
2018-03-03T00:46:23.082Z,109.60
2018-03-03T00:48:53.415Z,113.55
2018-03-03T00:51:23.758Z,112.32
2018-03-03T00:53:53.880Z,117.18
2018-03-03T00:56:24.222Z,123.35
2018-03-03T00:58:55.977Z,126.80
2018-03-03T01:01:27.219Z,122.93
2018-03-03T01:03:59.067Z,127.00
2018-03-03T01:06:29.383Z,123.60
2018-03-03T01:08:59.703Z,136.70
2018-03-03T01:11:29.759Z,120.28
2018-03-03T01:13:59.955Z,125.85
2018-03-03T01:16:30.055Z,128.15
2018-03-03T01:19:00.151Z,125.53
2018-03-03T01:21:30.242Z,127.35
2018-03-03T01:24:00.335Z,118.85
2018-03-03T01:26:30.386Z,119.97
2018-03-03T01:29:00.563Z,126.25
2018-03-03T01:31:30.743Z,129.40
2018-03-03T01:34:00.839Z,128.38
2018-03-03T01:36:31.345Z,115.25
2018-03-03T03:01:05.503Z,112.68
2018-03-03T03:03:35.838Z,135.88
2018-03-03T03:06:06.347Z,130.60
2018-03-03T03:08:36.789Z,128.50
2018-03-03T03:11:07.175Z,126.47
2018-03-03T03:13:38.166Z,125.90
2018-03-03T03:16:08.580Z,120.50
2018-03-03T03:18:39.030Z,118.90
2018-03-03T03:21:10.121Z,121.13
2018-03-03T03:23:41.396Z,119.75
2018-03-03T03:26:11.629Z,120.82
2018-03-03T03:28:42.589Z,115.32
2018-03-03T03:31:13.034Z,119.67
2018-03-03T03:33:43.718Z,128.40
2018-03-03T03:36:13.897Z,123.22
2018-03-03T03:38:44.054Z,122.20
2018-03-03T03:41:15.185Z,143.67
2018-03-03T03:43:45.331Z,139.05
2018-03-03T03:46:15.467Z,138.52
2018-03-03T03:48:46.187Z,138.95
2018-03-03T03:51:16.608Z,131.65
2018-03-03T03:53:46.813Z,129.02
2018-03-03T03:56:17.445Z,128.73
2018-03-03T03:58:47.611Z,126.87
2018-03-03T04:01:18.166Z,142.57
2018-03-03T04:03:48.805Z,135.50
2018-03-03T04:06:19.429Z,130.20
2018-03-03T04:08:49.740Z,123.62
2018-03-03T04:11:20.483Z,128.52
2018-03-03T04:13:50.809Z,125.28
2018-03-03T04:16:21.310Z,135.23
2018-03-03T04:18:52.824Z,160.55
2018-03-03T04:21:23.201Z,151.98
2018-03-03T04:23:53.579Z,145.90
2018-03-03T04:26:25.944Z,150.50
2018-03-03T04:28:56.504Z,146.50
2018-03-03T04:31:27.057Z,148.30
2018-03-03T04:33:58.087Z,142.55
2018-03-03T04:36:28.686Z,140.50
2018-03-03T04:38:59.220Z,135.68
2018-03-03T04:41:29.657Z,144.73
2018-03-03T04:44:00.102Z,136.43
2018-03-03T04:46:31.008Z,136.23
2018-03-03T04:49:02.117Z,133.60
2018-03-03T04:51:32.718Z,161.93
2018-03-03T04:54:03.292Z,150.95
2018-03-03T04:56:33.771Z,149.62
2018-03-03T04:59:04.281Z,132.30
2018-03-03T05:01:34.834Z,143.93
2018-03-03T05:04:05.791Z,137.70
2018-03-03T05:06:36.272Z,138.40
2018-03-03T05:09:06.945Z,128.40
2018-03-03T05:11:37.528Z,132.80
2018-03-03T05:14:09.544Z,134.27
2018-03-03T05:16:40.065Z,126.50
2018-03-03T05:19:12.425Z,131.37
2018-03-03T05:21:44.910Z,120.00
2018-03-03T05:24:16.066Z,116.35
2018-03-03T05:26:46.570Z,125.33
2018-03-03T05:29:17.996Z,128.38
2018-03-03T05:31:50.302Z,114.93
2018-03-03T05:34:21.504Z,118.18
2018-03-03T05:36:55.120Z,113.88
2018-03-03T05:39:25.644Z,114.07
2018-03-03T05:42:01.873Z,112.10
2018-03-03T05:44:43.000Z,113.27
2018-03-03T05:47:14.172Z,120.72
2018-03-03T05:49:44.558Z,116.22
2018-03-03T05:52:16.990Z,118.50
2018-03-03T05:54:48.873Z,118.62
2018-03-03T05:57:19.943Z,112.80
2018-03-03T05:59:50.391Z,107.05
2018-03-03T06:02:22.377Z,105.00
2018-03-03T06:04:52.688Z,112.28
2018-03-03T06:07:22.977Z,108.03
2018-03-03T06:09:54.019Z,97.78
2018-03-03T06:12:24.147Z,93.80
2018-03-03T06:14:55.173Z,93.83
2018-03-03T06:17:25.362Z,107.45
2018-03-03T06:19:55.577Z,93.35
2018-03-03T06:22:25.789Z,98.82
2018-03-03T06:24:56.003Z,104.05
2018-03-03T06:27:26.507Z,87.68
2018-03-03T06:29:57.385Z,101.70
2018-03-03T06:32:27.621Z,100.97
2018-03-03T06:34:58.587Z,104.82
2018-03-03T06:37:28.806Z,98.05
2018-03-03T06:39:59.834Z,93.18
2018-03-03T06:42:31.058Z,91.57
2018-03-03T08:13:30.864Z,58.87
2018-03-03T08:16:01.120Z,64.95
2018-03-03T08:18:32.144Z,64.62
2018-03-03T08:21:02.515Z,63.65
2018-03-03T08:23:32.841Z,65.50
2018-03-03T08:26:26.987Z,68.75
2018-03-03T08:28:58.743Z,59.03
2018-03-03T08:31:29.289Z,62.33
2018-03-03T08:34:00.517Z,59.05
2018-03-03T08:36:32.976Z,57.03
2018-03-03T08:39:12.717Z,58.53
2018-03-03T08:41:52.700Z,64.55
2018-03-03T08:44:23.140Z,53.87
2018-03-03T08:50:40.576Z,61.33
2018-03-03T08:53:11.039Z,48.80
2018-03-03T08:55:41.426Z,52.33
2018-03-03T08:58:13.488Z,56.30
2018-03-03T09:00:45.342Z,46.90
2018-03-03T09:03:15.667Z,42.90
2018-03-03T09:05:46.535Z,43.60
2018-03-03T09:08:18.129Z,42.30
2018-03-03T09:10:48.297Z,42.42
2018-03-03T09:13:20.650Z,38.60
2018-03-03T09:15:55.530Z,44.97
2018-03-03T09:18:27.596Z,38.00
2018-03-03T09:20:58.132Z,40.60
2018-03-03T09:23:28.230Z,39.08
2018-03-03T09:26:00.512Z,42.60
2018-03-03T09:28:31.743Z,36.28
2018-03-03T09:31:01.899Z,33.50
2018-03-03T09:33:32.832Z,35.22
2018-03-03T09:36:03.557Z,31.98
2018-03-03T09:38:38.048Z,26.10
2018-03-03T09:42:01.429Z,31.00
2018-03-03T09:44:42.171Z,34.92
2018-03-03T09:47:14.065Z,35.08
2018-03-03T09:49:44.676Z,39.80
2018-03-03T09:52:15.898Z,44.80
2018-03-03T10:00:50.259Z,47.30
2018-03-03T10:03:20.627Z,59.15
2018-03-03T10:08:21.655Z,53.22
2018-03-03T10:11:18.788Z,54.13
2018-03-03T10:13:52.280Z,55.20
2018-03-03T10:16:25.297Z,51.35
2018-03-03T10:18:56.897Z,51.33
2018-03-03T10:21:27.222Z,55.40
2018-03-03T10:23:57.892Z,60.22
2018-03-03T10:26:29.865Z,68.82
2018-03-03T10:32:49.074Z,56.55
2018-03-03T10:35:20.594Z,57.22
2018-03-03T10:38:42.620Z,54.00
2018-03-03T10:41:20.396Z,57.38
2018-03-03T10:43:54.780Z,49.67
2018-03-03T10:46:40.244Z,52.10
2018-03-03T10:49:12.073Z,55.10
2018-03-03T10:51:44.326Z,49.78
2018-03-03T10:54:15.955Z,48.15
2018-03-03T10:56:46.711Z,50.40
2018-03-03T10:59:18.365Z,53.40
2018-03-03T11:05:27.782Z,47.80
2018-03-03T11:08:20.068Z,49.10
2018-03-03T11:10:52.751Z,58.75
2018-03-03T11:13:25.638Z,63.45
2018-03-03T11:15:56.275Z,51.55
2018-03-03T11:21:09.060Z,60.90
2018-03-03T11:23:45.597Z,67.60
2018-03-03T11:26:17.373Z,59.25
2018-03-03T11:28:50.070Z,71.68
2018-03-03T11:31:22.259Z,70.35
2018-03-03T11:33:54.984Z,66.95
2018-03-03T11:36:27.164Z,69.30
2018-03-03T11:39:14.261Z,66.28
2018-03-03T11:41:45.304Z,63.40
2018-03-03T11:44:16.350Z,59.90
2018-03-03T11:46:47.709Z,67.10
2018-03-03T11:49:24.847Z,65.30
2018-03-03T11:51:55.412Z,62.35
2018-03-03T11:54:25.956Z,71.57
2018-03-03T11:56:56.549Z,63.40
2018-03-03T11:59:26.831Z,61.33
2018-03-03T12:05:56.677Z,64.20
2018-03-03T12:08:29.791Z,60.95
2018-03-03T12:11:16.527Z,67.72
2018-03-03T12:13:47.633Z,64.47
2018-03-03T12:16:20.740Z,67.50
2018-03-03T12:19:01.204Z,66.40
2018-03-03T12:21:40.607Z,66.60
2018-03-03T12:24:13.397Z,59.70
2018-03-03T12:26:56.089Z,63.23
2018-03-03T12:29:29.159Z,62.97
2018-03-03T12:35:08.011Z,68.20
2018-03-03T12:37:40.257Z,53.03
2018-03-03T12:40:12.830Z,55.40
2018-03-03T12:42:43.013Z,50.60
2018-03-03T12:45:17.756Z,58.42
2018-03-03T12:47:55.053Z,56.72
2018-03-03T12:51:02.635Z,57.20
2018-03-03T12:54:25.214Z,68.35
2018-03-03T12:56:55.758Z,67.47
2018-03-03T12:59:36.885Z,72.62
2018-03-03T13:02:08.320Z,67.85
2018-03-03T13:04:39.330Z,65.15
2018-03-03T13:07:15.456Z,67.53
2018-03-03T13:09:49.364Z,70.15
2018-03-03T13:12:21.239Z,67.80
2018-03-03T13:14:53.117Z,73.12
2018-03-03T13:17:57.295Z,70.43
2018-03-03T13:20:32.373Z,70.82
2018-03-03T13:26:05.885Z,70.70
2018-03-03T13:28:43.031Z,69.57
2018-03-03T13:31:16.131Z,76.53
2018-03-03T13:33:56.506Z,71.68
2018-03-03T13:36:49.904Z,74.70
2018-03-03T13:42:36.717Z,71.12
2018-03-03T13:48:47.501Z,75.18
2018-03-03T13:51:40.069Z,74.68
2018-03-03T13:54:33.031Z,76.43
2018-03-03T13:57:08.832Z,80.60
2018-03-03T13:59:40.909Z,70.40
2018-03-03T14:02:12.102Z,78.15
2018-03-03T14:04:44.349Z,78.05
2018-03-03T14:07:16.045Z,76.37
2018-03-03T14:09:48.830Z,74.78
2018-03-03T14:16:16.642Z,83.37
2018-03-03T14:18:50.543Z,77.22
2018-03-03T14:21:21.068Z,80.68
2018-03-03T14:23:52.248Z,82.70
2018-03-03T14:26:45.301Z,76.27
2018-03-03T14:29:29.548Z,77.10
2018-03-03T14:32:11.442Z,84.30
2018-03-03T14:34:50.320Z,83.03
2018-03-03T14:37:22.273Z,86.82
2018-03-03T14:39:53.411Z,90.75
2018-03-03T14:42:36.869Z,88.93
2018-03-03T14:45:14.322Z,76.12
2018-03-03T14:47:45.874Z,85.15
2018-03-03T14:50:17.444Z,91.80
2018-03-03T14:52:48.711Z,88.05
2018-03-03T14:58:07.188Z,83.18
2018-03-03T15:00:45.627Z,83.03
2018-03-03T15:03:17.655Z,84.93
2018-03-03T15:05:55.426Z,85.95
2018-03-03T15:08:33.372Z,91.10
2018-03-03T15:11:09.786Z,91.57
2018-03-03T15:13:41.247Z,91.80
2018-03-03T15:16:49.514Z,84.87
2018-03-03T15:19:24.686Z,88.97
2018-03-03T15:21:55.103Z,98.80
2018-03-03T15:24:58.776Z,93.27
2018-03-03T15:27:29.310Z,82.27
2018-03-03T15:29:59.878Z,99.20
2018-03-03T15:32:30.569Z,89.27
2018-03-03T15:35:01.615Z,83.30
2018-03-03T15:37:32.283Z,94.00
2018-03-03T15:40:04.719Z,90.65
2018-03-03T15:42:35.955Z,87.97
2018-03-03T15:52:18.957Z,90.50
2018-03-03T15:54:49.555Z,89.90
2018-03-03T15:57:32.772Z,94.93
2018-03-03T16:00:03.587Z,85.97
2018-03-03T16:02:47.854Z,83.50
2018-03-03T16:05:19.485Z,89.05
2018-03-03T16:07:51.232Z,90.90
2018-03-03T16:10:31.660Z,83.75
2018-03-03T16:13:04.623Z,83.93
2018-03-03T16:15:41.078Z,86.07
2018-03-03T16:18:19.309Z,86.93
2018-03-03T16:20:51.792Z,84.22
2018-03-03T16:24:50.366Z,76.13
2018-03-03T16:27:24.616Z,87.97
2018-03-03T16:29:56.564Z,86.63
2018-03-03T16:32:33.079Z,88.72
2018-03-03T16:35:52.280Z,83.20
2018-03-03T16:38:23.496Z,83.25
2018-03-03T16:40:55.210Z,81.63
2018-03-03T16:43:28.475Z,83.55
2018-03-03T16:45:59.711Z,74.67
2018-03-03T16:48:32.614Z,92.37
2018-03-03T16:51:03.829Z,82.12
2018-03-03T16:53:44.032Z,86.90
2018-03-03T16:56:19.083Z,80.70
2018-03-03T16:58:52.046Z,83.18
2018-03-03T17:01:22.949Z,82.15
2018-03-03T17:03:59.155Z,78.30
2018-03-03T17:06:32.623Z,93.32
2018-03-03T17:09:03.915Z,82.32
2018-03-03T17:11:37.945Z,89.47
2018-03-03T17:14:08.679Z,79.47
2018-03-03T17:16:41.369Z,99.40
2018-03-03T17:19:22.839Z,85.20
2018-03-03T17:21:53.661Z,81.20
2018-03-03T17:24:25.128Z,82.70
2018-03-03T17:26:55.865Z,83.32
2018-03-03T17:29:28.368Z,81.87
2018-03-03T17:32:22.585Z,79.65
2018-03-03T17:34:58.214Z,82.32
2018-03-03T17:37:32.641Z,85.57
2018-03-03T17:40:03.842Z,73.97
2018-03-03T17:42:34.432Z,80.97
2018-03-03T17:45:07.000Z,84.20
2018-03-03T17:47:38.955Z,81.85
2018-03-03T17:50:10.019Z,82.70
2018-03-03T17:52:43.978Z,88.68
2018-03-03T17:55:17.446Z,82.57
2018-03-03T17:57:49.182Z,81.75
2018-03-03T18:00:25.154Z,82.50
2018-03-03T18:03:14.918Z,84.95
2018-03-03T18:05:48.517Z,81.55
2018-03-03T18:08:21.018Z,90.78
2018-03-03T18:10:52.321Z,80.80
2018-03-03T18:13:31.260Z,79.22
2018-03-03T18:16:03.827Z,87.50
2018-03-03T18:18:36.051Z,87.37
2018-03-03T18:21:08.623Z,85.32
2018-03-03T18:23:52.383Z,82.75
2018-03-03T18:26:25.773Z,84.53
2018-03-03T18:28:58.156Z,85.97
2018-03-03T18:31:31.452Z,81.55
2018-03-03T18:34:03.408Z,91.22
2018-03-03T18:36:34.612Z,79.65
2018-03-03T18:39:07.501Z,82.05
2018-03-03T18:41:38.914Z,88.93
2018-03-03T18:44:09.403Z,90.27
2018-03-03T18:46:44.881Z,87.17
2018-03-03T18:49:17.129Z,84.17
2018-03-03T18:51:51.714Z,80.62
2018-03-03T18:54:22.636Z,87.37
2018-03-03T18:56:55.029Z,82.88
2018-03-03T18:59:25.496Z,84.93
2018-03-03T19:01:56.225Z,86.40
2018-03-03T19:04:28.944Z,84.10
2018-03-03T19:07:02.514Z,83.07
2018-03-03T19:09:33.311Z,80.07
2018-03-03T19:12:06.688Z,92.43
2018-03-03T19:14:38.998Z,90.68
2018-03-03T19:17:10.644Z,87.78
2018-03-03T19:19:41.944Z,89.37
2018-03-03T19:22:13.381Z,91.78
2018-03-03T19:24:46.158Z,89.35
2018-03-03T19:27:19.750Z,87.88
2018-03-03T19:29:54.726Z,85.68
2018-03-03T19:32:27.734Z,89.83
2018-03-03T19:35:00.881Z,100.97
2018-03-03T19:37:34.208Z,96.75
2018-03-03T19:40:08.678Z,92.70
2018-03-03T19:42:39.818Z,92.88
2018-03-03T19:45:15.708Z,89.40
2018-03-03T19:47:47.801Z,82.60
2018-03-03T19:50:18.993Z,96.80
2018-03-03T19:52:51.414Z,87.82
2018-03-03T19:55:24.188Z,94.05
2018-03-03T19:57:56.729Z,92.03
2018-03-03T20:00:29.914Z,92.47
2018-03-03T20:03:00.999Z,92.00
2018-03-03T20:05:31.895Z,94.77
2018-03-03T20:08:03.472Z,98.57
2018-03-03T20:10:35.038Z,90.32
2018-03-03T20:13:05.479Z,90.10
2018-03-03T20:15:40.034Z,89.70
2018-03-03T20:18:11.433Z,94.45
2018-03-03T20:20:54.644Z,88.85
2018-03-03T20:23:29.880Z,95.45
2018-03-03T20:26:12.919Z,96.83
2018-03-03T20:28:45.426Z,95.82
2018-03-03T20:31:18.726Z,95.90
2018-03-03T20:33:50.055Z,89.35
2018-03-03T20:36:24.328Z,90.63
2018-03-03T20:38:55.390Z,87.30
2018-03-03T20:41:26.488Z,92.10
2018-03-03T20:44:01.545Z,92.88
2018-03-03T20:46:34.642Z,93.82
2018-03-03T20:49:05.785Z,98.87
2018-03-03T20:51:38.649Z,97.03
2018-03-03T20:54:10.766Z,93.43
2018-03-03T20:56:44.185Z,85.22
2018-03-03T20:59:16.570Z,88.82
2018-03-03T21:01:47.869Z,95.32
2018-03-03T21:04:19.266Z,94.15
2018-03-03T21:06:52.390Z,94.55
2018-03-03T21:09:42.602Z,92.80
2018-03-03T21:12:16.642Z,97.45
2018-03-03T21:14:49.792Z,90.00
2018-03-03T21:17:22.692Z,94.20
2018-03-03T21:19:55.287Z,92.70
2018-03-03T21:22:26.712Z,96.82
2018-03-03T21:24:57.976Z,89.97
2018-03-03T21:27:36.987Z,94.93
2018-03-03T21:30:09.644Z,96.95
2018-03-03T21:32:40.320Z,106.47
2018-03-03T21:35:11.070Z,105.90
2018-03-03T21:37:41.815Z,105.90
2018-03-03T21:40:13.347Z,107.03
2018-03-03T21:42:44.253Z,99.87
2018-03-03T21:45:16.682Z,101.15
2018-03-03T21:47:47.722Z,105.07
2018-03-03T21:50:19.397Z,101.97
2018-03-03T21:52:55.096Z,102.43
2018-03-03T21:55:33.498Z,95.47
2018-03-03T21:58:10.710Z,101.85
2018-03-03T22:00:41.917Z,107.87
2018-03-03T22:03:14.185Z,99.80
2018-03-03T22:05:44.670Z,97.07
2018-03-03T22:08:15.777Z,102.75
2018-03-03T22:10:46.459Z,98.32
2018-03-03T22:13:17.017Z,102.30
2018-03-03T22:15:47.535Z,107.40
2018-03-03T22:18:20.502Z,114.00
2018-03-03T22:20:51.273Z,115.75
2018-03-03T22:23:46.546Z,121.47
2018-03-03T22:26:17.395Z,113.47
2018-03-03T22:28:48.127Z,100.87
2018-03-03T22:31:20.128Z,111.43
2018-03-03T22:33:55.783Z,112.78
2018-03-03T22:36:32.449Z,107.73
2018-03-03T22:39:09.942Z,105.25
2018-03-03T22:41:40.870Z,104.17
2018-03-03T22:44:12.308Z,107.37
2018-03-03T22:50:08.660Z,109.20
2018-03-03T22:52:39.948Z,107.68
2018-03-03T22:58:35.034Z,106.68
2018-03-03T23:01:36.708Z,108.57
2018-03-03T23:04:30.457Z,107.22
2018-03-03T23:07:01.837Z,107.22
2018-03-03T23:09:32.225Z,101.57
2018-03-03T23:12:04.061Z,104.12
2018-03-03T23:15:05.792Z,104.05
2018-03-03T23:17:46.721Z,95.15
2018-03-03T23:20:18.383Z,104.80
2018-03-03T23:22:49.922Z,107.03
2018-03-03T23:25:20.400Z,107.15
2018-03-03T23:27:56.157Z,105.20
2018-03-03T23:30:27.941Z,105.05
2018-03-03T23:33:01.295Z,93.45
2018-03-03T23:35:34.707Z,102.30
2018-03-03T23:38:06.201Z,98.03
2018-03-03T23:40:37.325Z,99.13
2018-03-03T23:43:09.004Z,104.53
2018-03-03T23:45:41.552Z,107.07
2018-03-03T23:48:14.160Z,103.63
2018-03-03T23:50:46.895Z,103.80
2018-03-03T23:53:18.343Z,105.18
2018-03-03T23:55:49.562Z,112.00
2018-03-03T23:58:21.600Z,109.15
